sensor_id;sensor_type;location;lat;lon;timestamp;temperature;humidity
64855;DHT22;51321;50.428;8.378;2022-07-18T00:00:45;14.90;82.60
64855;DHT22;51321;50.428;8.378;2022-07-18T00:03:07;14.90;82.60
64855;DHT22;51321;50.428;8.378;2022-07-18T00:05:28;14.80;82.80
64855;DHT22;51321;50.428;8.378;2022-07-18T00:07:51;14.90;82.40
64855;DHT22;51321;50.428;8.378;2022-07-18T00:10:13;15.00;83.20
64855;DHT22;51321;50.428;8.378;2022-07-18T00:12:35;15.00;82.50
64855;DHT22;51321;50.428;8.378;2022-07-18T00:14:57;14.80;83.00
64855;DHT22;51321;50.428;8.378;2022-07-18T00:17:19;14.80;84.30
64855;DHT22;51321;50.428;8.378;2022-07-18T00:19:41;14.80;83.10
64855;DHT22;51321;50.428;8.378;2022-07-18T00:22:03;14.70;83.60
64855;DHT22;51321;50.428;8.378;2022-07-18T00:24:26;14.60;84.30
64855;DHT22;51321;50.428;8.378;2022-07-18T00:26:48;14.60;83.60
64855;DHT22;51321;50.428;8.378;2022-07-18T00:29:10;14.60;84.20
64855;DHT22;51321;50.428;8.378;2022-07-18T00:31:31;14.50;84.10
64855;DHT22;51321;50.428;8.378;2022-07-18T00:33:53;14.60;84.80
64855;DHT22;51321;50.428;8.378;2022-07-18T00:36:15;14.50;84.70
64855;DHT22;51321;50.428;8.378;2022-07-18T00:38:37;14.40;85.40
64855;DHT22;51321;50.428;8.378;2022-07-18T00:41:00;14.40;85.90
64855;DHT22;51321;50.428;8.378;2022-07-18T00:43:22;14.40;85.10
64855;DHT22;51321;50.428;8.378;2022-07-18T00:45:45;14.40;85.70
64855;DHT22;51321;50.428;8.378;2022-07-18T00:48:07;14.40;86.10
64855;DHT22;51321;50.428;8.378;2022-07-18T00:50:29;14.40;86.60
64855;DHT22;51321;50.428;8.378;2022-07-18T00:52:51;14.30;86.70
64855;DHT22;51321;50.428;8.378;2022-07-18T00:55:13;14.20;87.40
64855;DHT22;51321;50.428;8.378;2022-07-18T00:57:37;14.20;87.70
64855;DHT22;51321;50.428;8.378;2022-07-18T01:00:00;14.10;88.40
64855;DHT22;51321;50.428;8.378;2022-07-18T01:02:40;14.10;88.30
64855;DHT22;51321;50.428;8.378;2022-07-18T01:05:08;14.20;88.40
64855;DHT22;51321;50.428;8.378;2022-07-18T01:07:30;14.00;88.40
64855;DHT22;51321;50.428;8.378;2022-07-18T01:09:52;14.00;88.10
64855;DHT22;51321;50.428;8.378;2022-07-18T01:12:14;14.00;88.20
64855;DHT22;51321;50.428;8.378;2022-07-18T01:14:37;13.90;88.60
64855;DHT22;51321;50.428;8.378;2022-07-18T01:16:59;13.90;89.10
64855;DHT22;51321;50.428;8.378;2022-07-18T01:19:21;14.00;89.00
64855;DHT22;51321;50.428;8.378;2022-07-18T01:21:44;14.00;89.10
64855;DHT22;51321;50.428;8.378;2022-07-18T01:24:06;14.00;89.20
64855;DHT22;51321;50.428;8.378;2022-07-18T01:26:28;14.00;89.10
64855;DHT22;51321;50.428;8.378;2022-07-18T01:28:50;14.00;89.80
64855;DHT22;51321;50.428;8.378;2022-07-18T01:31:16;13.90;89.90
64855;DHT22;51321;50.428;8.378;2022-07-18T01:33:38;13.90;90.10
64855;DHT22;51321;50.428;8.378;2022-07-18T01:36:04;13.80;90.20
64855;DHT22;51321;50.428;8.378;2022-07-18T01:38:30;13.80;90.20
64855;DHT22;51321;50.428;8.378;2022-07-18T01:40:52;13.70;90.40
64855;DHT22;51321;50.428;8.378;2022-07-18T01:43:14;13.80;90.20
64855;DHT22;51321;50.428;8.378;2022-07-18T01:45:36;13.70;90.40
64855;DHT22;51321;50.428;8.378;2022-07-18T01:47:59;13.60;90.70
64855;DHT22;51321;50.428;8.378;2022-07-18T01:50:22;13.60;90.80
64855;DHT22;51321;50.428;8.378;2022-07-18T01:52:44;13.50;90.90
64855;DHT22;51321;50.428;8.378;2022-07-18T01:55:09;13.50;90.80
64855;DHT22;51321;50.428;8.378;2022-07-18T01:57:31;13.50;90.90
64855;DHT22;51321;50.428;8.378;2022-07-18T01:59:53;13.50;91.10
64855;DHT22;51321;50.428;8.378;2022-07-18T02:02:14;13.50;91.20
64855;DHT22;51321;50.428;8.378;2022-07-18T02:04:36;13.50;91.20
64855;DHT22;51321;50.428;8.378;2022-07-18T02:07:16;13.50;91.20
64855;DHT22;51321;50.428;8.378;2022-07-18T02:09:38;13.50;91.30
64855;DHT22;51321;50.428;8.378;2022-07-18T02:12:01;13.40;91.50
64855;DHT22;51321;50.428;8.378;2022-07-18T02:14:23;13.30;91.50
64855;DHT22;51321;50.428;8.378;2022-07-18T02:16:45;13.30;91.50
64855;DHT22;51321;50.428;8.378;2022-07-18T02:19:06;13.30;91.60
64855;DHT22;51321;50.428;8.378;2022-07-18T02:21:28;13.20;91.90
64855;DHT22;51321;50.428;8.378;2022-07-18T02:23:50;13.20;92.00
64855;DHT22;51321;50.428;8.378;2022-07-18T02:26:12;13.30;91.70
64855;DHT22;51321;50.428;8.378;2022-07-18T02:28:36;13.20;91.80
64855;DHT22;51321;50.428;8.378;2022-07-18T02:30:58;13.20;91.90
64855;DHT22;51321;50.428;8.378;2022-07-18T02:33:19;13.10;92.10
64855;DHT22;51321;50.428;8.378;2022-07-18T02:35:41;13.00;92.40
64855;DHT22;51321;50.428;8.378;2022-07-18T02:38:03;12.90;92.50
64855;DHT22;51321;50.428;8.378;2022-07-18T02:40:25;13.00;92.70
64855;DHT22;51321;50.428;8.378;2022-07-18T02:42:47;13.00;92.80
64855;DHT22;51321;50.428;8.378;2022-07-18T02:45:11;13.00;92.70
64855;DHT22;51321;50.428;8.378;2022-07-18T02:47:33;13.00;92.50
64855;DHT22;51321;50.428;8.378;2022-07-18T02:49:55;12.80;92.80
64855;DHT22;51321;50.428;8.378;2022-07-18T02:52:16;12.80;92.90
64855;DHT22;51321;50.428;8.378;2022-07-18T02:54:38;12.60;93.20
64855;DHT22;51321;50.428;8.378;2022-07-18T02:57:00;12.70;93.20
64855;DHT22;51321;50.428;8.378;2022-07-18T02:59:22;12.80;93.10
64855;DHT22;51321;50.428;8.378;2022-07-18T03:01:46;12.80;92.80
64855;DHT22;51321;50.428;8.378;2022-07-18T03:04:09;12.80;92.60
64855;DHT22;51321;50.428;8.378;2022-07-18T03:06:31;12.90;92.60
64855;DHT22;51321;50.428;8.378;2022-07-18T03:08:53;12.80;92.80
64855;DHT22;51321;50.428;8.378;2022-07-18T03:11:15;12.80;93.10
64855;DHT22;51321;50.428;8.378;2022-07-18T03:13:37;12.70;93.20
64855;DHT22;51321;50.428;8.378;2022-07-18T03:15:59;12.60;93.80
64855;DHT22;51321;50.428;8.378;2022-07-18T03:18:22;12.60;93.30
64855;DHT22;51321;50.428;8.378;2022-07-18T03:20:45;12.60;93.50
64855;DHT22;51321;50.428;8.378;2022-07-18T03:23:07;12.60;93.50
64855;DHT22;51321;50.428;8.378;2022-07-18T03:25:29;12.60;93.50
64855;DHT22;51321;50.428;8.378;2022-07-18T03:27:51;12.60;93.50
64855;DHT22;51321;50.428;8.378;2022-07-18T03:30:13;12.60;93.50
64855;DHT22;51321;50.428;8.378;2022-07-18T03:32:35;12.40;93.70
64855;DHT22;51321;50.428;8.378;2022-07-18T03:34:58;12.50;93.50
64855;DHT22;51321;50.428;8.378;2022-07-18T03:37:20;12.50;93.60
64855;DHT22;51321;50.428;8.378;2022-07-18T03:39:41;12.50;93.50
64855;DHT22;51321;50.428;8.378;2022-07-18T03:42:03;12.50;93.40
64855;DHT22;51321;50.428;8.378;2022-07-18T03:44:25;12.40;93.70
64855;DHT22;51321;50.428;8.378;2022-07-18T03:46:47;12.40;93.80
64855;DHT22;51321;50.428;8.378;2022-07-18T03:49:09;12.40;93.80
64855;DHT22;51321;50.428;8.378;2022-07-18T03:51:32;12.40;93.90
64855;DHT22;51321;50.428;8.378;2022-07-18T03:53:54;12.40;94.00
64855;DHT22;51321;50.428;8.378;2022-07-18T03:56:16;12.50;94.00
64855;DHT22;51321;50.428;8.378;2022-07-18T03:58:38;12.50;93.80
64855;DHT22;51321;50.428;8.378;2022-07-18T04:01:00;12.50;93.80
64855;DHT22;51321;50.428;8.378;2022-07-18T04:03:22;12.60;93.70
64855;DHT22;51321;50.428;8.378;2022-07-18T04:05:44;12.60;93.80
64855;DHT22;51321;50.428;8.378;2022-07-18T04:08:07;12.60;93.80
64855;DHT22;51321;50.428;8.378;2022-07-18T04:10:29;12.50;93.80
64855;DHT22;51321;50.428;8.378;2022-07-18T04:12:52;12.50;94.10
64855;DHT22;51321;50.428;8.378;2022-07-18T04:15:14;12.70;93.90
64855;DHT22;51321;50.428;8.378;2022-07-18T04:17:36;12.60;94.20
64855;DHT22;51321;50.428;8.378;2022-07-18T04:19:57;12.50;94.40
64855;DHT22;51321;50.428;8.378;2022-07-18T04:22:19;12.30;95.00
64855;DHT22;51321;50.428;8.378;2022-07-18T04:24:42;12.30;94.90
64855;DHT22;51321;50.428;8.378;2022-07-18T04:27:04;12.40;94.90
64855;DHT22;51321;50.428;8.378;2022-07-18T04:29:26;12.40;95.10
64855;DHT22;51321;50.428;8.378;2022-07-18T04:31:49;12.30;95.10
64855;DHT22;51321;50.428;8.378;2022-07-18T04:34:11;12.40;94.80
64855;DHT22;51321;50.428;8.378;2022-07-18T04:36:33;12.50;94.80
64855;DHT22;51321;50.428;8.378;2022-07-18T04:38:54;12.40;94.70
64855;DHT22;51321;50.428;8.378;2022-07-18T04:41:18;12.40;95.10
64855;DHT22;51321;50.428;8.378;2022-07-18T04:43:42;12.30;95.40
64855;DHT22;51321;50.428;8.378;2022-07-18T04:46:04;12.60;95.30
64855;DHT22;51321;50.428;8.378;2022-07-18T04:48:26;12.60;94.90
64855;DHT22;51321;50.428;8.378;2022-07-18T04:50:48;12.70;95.00
64855;DHT22;51321;50.428;8.378;2022-07-18T04:53:10;13.00;94.60
64855;DHT22;51321;50.428;8.378;2022-07-18T04:55:32;13.00;94.60
64855;DHT22;51321;50.428;8.378;2022-07-18T04:57:55;13.10;94.40
64855;DHT22;51321;50.428;8.378;2022-07-18T05:00:19;13.10;94.20
64855;DHT22;51321;50.428;8.378;2022-07-18T05:02:42;13.20;94.40
64855;DHT22;51321;50.428;8.378;2022-07-18T05:05:04;13.20;94.10
64855;DHT22;51321;50.428;8.378;2022-07-18T05:07:26;13.30;93.90
64855;DHT22;51321;50.428;8.378;2022-07-18T05:09:48;13.50;93.90
64855;DHT22;51321;50.428;8.378;2022-07-18T05:12:10;13.70;93.70
64855;DHT22;51321;50.428;8.378;2022-07-18T05:14:33;13.80;93.10
64855;DHT22;51321;50.428;8.378;2022-07-18T05:16:55;13.90;92.80
64855;DHT22;51321;50.428;8.378;2022-07-18T05:19:17;14.00;93.10
64855;DHT22;51321;50.428;8.378;2022-07-18T05:21:39;14.10;92.60
64855;DHT22;51321;50.428;8.378;2022-07-18T05:24:01;14.20;92.70
64855;DHT22;51321;50.428;8.378;2022-07-18T05:26:23;14.20;92.80
64855;DHT22;51321;50.428;8.378;2022-07-18T05:28:45;14.20;92.60
64855;DHT22;51321;50.428;8.378;2022-07-18T05:31:08;14.40;92.50
64855;DHT22;51321;50.428;8.378;2022-07-18T05:33:30;14.60;92.30
64855;DHT22;51321;50.428;8.378;2022-07-18T05:35:52;14.80;91.90
64855;DHT22;51321;50.428;8.378;2022-07-18T05:38:14;15.00;91.80
64855;DHT22;51321;50.428;8.378;2022-07-18T05:40:36;15.10;91.40
64855;DHT22;51321;50.428;8.378;2022-07-18T05:42:57;15.30;91.20
64855;DHT22;51321;50.428;8.378;2022-07-18T05:45:20;15.20;90.90
64855;DHT22;51321;50.428;8.378;2022-07-18T05:47:43;15.30;91.00
64855;DHT22;51321;50.428;8.378;2022-07-18T05:50:06;15.10;91.10
64855;DHT22;51321;50.428;8.378;2022-07-18T05:52:29;15.40;91.10
64855;DHT22;51321;50.428;8.378;2022-07-18T05:54:51;15.50;90.60
64855;DHT22;51321;50.428;8.378;2022-07-18T05:57:12;15.60;90.60
64855;DHT22;51321;50.428;8.378;2022-07-18T05:59:34;15.80;90.70
64855;DHT22;51321;50.428;8.378;2022-07-18T06:01:56;15.80;90.20
64855;DHT22;51321;50.428;8.378;2022-07-18T06:04:20;15.70;90.10
64855;DHT22;51321;50.428;8.378;2022-07-18T06:06:42;15.80;89.80
64855;DHT22;51321;50.428;8.378;2022-07-18T06:09:05;15.90;89.80
64855;DHT22;51321;50.428;8.378;2022-07-18T06:11:28;16.00;89.50
64855;DHT22;51321;50.428;8.378;2022-07-18T06:13:50;16.20;89.50
64855;DHT22;51321;50.428;8.378;2022-07-18T06:16:12;16.60;88.80
64855;DHT22;51321;50.428;8.378;2022-07-18T06:18:34;17.00;88.00
64855;DHT22;51321;50.428;8.378;2022-07-18T06:20:57;16.90;86.80
64855;DHT22;51321;50.428;8.378;2022-07-18T06:23:19;16.90;86.30
64855;DHT22;51321;50.428;8.378;2022-07-18T06:25:41;17.30;85.40
64855;DHT22;51321;50.428;8.378;2022-07-18T06:28:03;17.40;85.30
64855;DHT22;51321;50.428;8.378;2022-07-18T06:30:25;17.80;83.90
64855;DHT22;51321;50.428;8.378;2022-07-18T06:32:47;17.60;84.70
64855;DHT22;51321;50.428;8.378;2022-07-18T06:35:09;17.80;83.60
64855;DHT22;51321;50.428;8.378;2022-07-18T06:37:32;18.20;83.30
64855;DHT22;51321;50.428;8.378;2022-07-18T06:39:54;18.10;82.70
64855;DHT22;51321;50.428;8.378;2022-07-18T06:42:16;18.20;81.90
64855;DHT22;51321;50.428;8.378;2022-07-18T06:44:38;18.50;82.50
64855;DHT22;51321;50.428;8.378;2022-07-18T06:46:59;18.50;81.20
64855;DHT22;51321;50.428;8.378;2022-07-18T06:49:21;18.90;80.40
64855;DHT22;51321;50.428;8.378;2022-07-18T06:51:43;19.10;79.80
64855;DHT22;51321;50.428;8.378;2022-07-18T06:54:06;19.30;79.00
64855;DHT22;51321;50.428;8.378;2022-07-18T06:56:28;19.50;78.20
64855;DHT22;51321;50.428;8.378;2022-07-18T06:58:50;19.70;77.70
64855;DHT22;51321;50.428;8.378;2022-07-18T07:01:12;19.50;77.20
64855;DHT22;51321;50.428;8.378;2022-07-18T07:03:33;19.80;76.90
64855;DHT22;51321;50.428;8.378;2022-07-18T07:05:55;20.10;76.10
64855;DHT22;51321;50.428;8.378;2022-07-18T07:08:17;20.40;75.20
64855;DHT22;51321;50.428;8.378;2022-07-18T07:10:40;20.50;75.70
64855;DHT22;51321;50.428;8.378;2022-07-18T07:13:02;20.60;74.20
64855;DHT22;51321;50.428;8.378;2022-07-18T07:15:24;20.80;74.20
64855;DHT22;51321;50.428;8.378;2022-07-18T07:17:46;20.90;72.90
64855;DHT22;51321;50.428;8.378;2022-07-18T07:20:09;21.10;72.10
64855;DHT22;51321;50.428;8.378;2022-07-18T07:22:31;21.30;71.20
64855;DHT22;51321;50.428;8.378;2022-07-18T07:24:53;21.50;69.00
64855;DHT22;51321;50.428;8.378;2022-07-18T07:27:16;21.60;68.80
64855;DHT22;51321;50.428;8.378;2022-07-18T07:29:38;21.70;68.60
64855;DHT22;51321;50.428;8.378;2022-07-18T07:32:00;21.90;68.70
64855;DHT22;51321;50.428;8.378;2022-07-18T07:34:22;22.10;67.00
64855;DHT22;51321;50.428;8.378;2022-07-18T07:36:44;22.00;67.50
64855;DHT22;51321;50.428;8.378;2022-07-18T07:39:06;22.10;67.50
64855;DHT22;51321;50.428;8.378;2022-07-18T07:41:27;22.30;68.20
64855;DHT22;51321;50.428;8.378;2022-07-18T07:43:50;22.50;66.70
64855;DHT22;51321;50.428;8.378;2022-07-18T07:46:12;22.50;65.50
64855;DHT22;51321;50.428;8.378;2022-07-18T07:48:34;22.60;66.00
64855;DHT22;51321;50.428;8.378;2022-07-18T07:50:56;22.70;64.60
64855;DHT22;51321;50.428;8.378;2022-07-18T07:53:18;22.70;64.20
64855;DHT22;51321;50.428;8.378;2022-07-18T07:55:40;22.80;64.10
64855;DHT22;51321;50.428;8.378;2022-07-18T07:58:02;23.00;64.10
64855;DHT22;51321;50.428;8.378;2022-07-18T08:00:27;23.20;64.50
64855;DHT22;51321;50.428;8.378;2022-07-18T08:02:54;23.50;63.40
64855;DHT22;51321;50.428;8.378;2022-07-18T08:05:16;23.70;62.80
64855;DHT22;51321;50.428;8.378;2022-07-18T08:07:38;23.90;62.60
64855;DHT22;51321;50.428;8.378;2022-07-18T08:10:00;24.00;61.20
64855;DHT22;51321;50.428;8.378;2022-07-18T08:12:21;23.90;61.20
64855;DHT22;51321;50.428;8.378;2022-07-18T08:14:43;24.00;61.30
64855;DHT22;51321;50.428;8.378;2022-07-18T08:17:06;24.10;60.50
64855;DHT22;51321;50.428;8.378;2022-07-18T08:19:28;24.30;61.20
64855;DHT22;51321;50.428;8.378;2022-07-18T08:21:50;24.40;59.90
64855;DHT22;51321;50.428;8.378;2022-07-18T08:24:11;24.70;59.40
64855;DHT22;51321;50.428;8.378;2022-07-18T08:26:33;24.60;59.10
64855;DHT22;51321;50.428;8.378;2022-07-18T08:28:59;24.80;59.40
64855;DHT22;51321;50.428;8.378;2022-07-18T08:31:21;25.00;58.50
64855;DHT22;51321;50.428;8.378;2022-07-18T08:33:45;25.20;58.30
64855;DHT22;51321;50.428;8.378;2022-07-18T08:36:06;25.40;57.90
64855;DHT22;51321;50.428;8.378;2022-07-18T08:38:29;25.60;57.50
64855;DHT22;51321;50.428;8.378;2022-07-18T08:40:52;25.60;56.40
64855;DHT22;51321;50.428;8.378;2022-07-18T08:43:15;25.50;57.40
64855;DHT22;51321;50.428;8.378;2022-07-18T08:45:36;25.70;55.40
64855;DHT22;51321;50.428;8.378;2022-07-18T08:47:59;25.60;54.80
64855;DHT22;51321;50.428;8.378;2022-07-18T08:50:22;25.70;55.10
64855;DHT22;51321;50.428;8.378;2022-07-18T08:52:44;26.10;51.80
64855;DHT22;51321;50.428;8.378;2022-07-18T08:55:08;26.30;53.00
64855;DHT22;51321;50.428;8.378;2022-07-18T08:57:29;26.50;51.10
64855;DHT22;51321;50.428;8.378;2022-07-18T08:59:51;26.50;50.40
64855;DHT22;51321;50.428;8.378;2022-07-18T09:02:13;26.40;49.90
64855;DHT22;51321;50.428;8.378;2022-07-18T09:04:35;26.80;50.50
64855;DHT22;51321;50.428;8.378;2022-07-18T09:06:59;26.90;50.40
64855;DHT22;51321;50.428;8.378;2022-07-18T09:09:20;27.00;50.50
64855;DHT22;51321;50.428;8.378;2022-07-18T09:11:50;27.10;47.80
64855;DHT22;51321;50.428;8.378;2022-07-18T09:14:27;27.20;47.50
64855;DHT22;51321;50.428;8.378;2022-07-18T09:16:59;27.50;47.00
64855;DHT22;51321;50.428;8.378;2022-07-18T09:19:22;27.80;46.10
64855;DHT22;51321;50.428;8.378;2022-07-18T09:21:44;27.80;45.50
64855;DHT22;51321;50.428;8.378;2022-07-18T09:24:07;27.90;45.60
64855;DHT22;51321;50.428;8.378;2022-07-18T09:26:38;27.80;44.30
64855;DHT22;51321;50.428;8.378;2022-07-18T09:29:00;27.50;45.40
64855;DHT22;51321;50.428;8.378;2022-07-18T09:31:23;27.40;45.10
64855;DHT22;51321;50.428;8.378;2022-07-18T09:33:52;27.20;46.00
64855;DHT22;51321;50.428;8.378;2022-07-18T09:36:14;27.40;47.50
64855;DHT22;51321;50.428;8.378;2022-07-18T09:38:36;27.60;47.40
64855;DHT22;51321;50.428;8.378;2022-07-18T09:40:59;27.80;46.10
64855;DHT22;51321;50.428;8.378;2022-07-18T09:43:23;27.80;47.60
64855;DHT22;51321;50.428;8.378;2022-07-18T09:45:47;27.90;46.30
64855;DHT22;51321;50.428;8.378;2022-07-18T09:48:10;28.00;45.50
64855;DHT22;51321;50.428;8.378;2022-07-18T09:50:34;28.10;45.80
64855;DHT22;51321;50.428;8.378;2022-07-18T09:53:15;27.80;46.10
64855;DHT22;51321;50.428;8.378;2022-07-18T09:55:43;28.20;46.40
64855;DHT22;51321;50.428;8.378;2022-07-18T09:58:07;28.10;47.00
64855;DHT22;51321;50.428;8.378;2022-07-18T10:00:31;27.80;46.70
64855;DHT22;51321;50.428;8.378;2022-07-18T10:02:54;28.00;46.60
64855;DHT22;51321;50.428;8.378;2022-07-18T10:05:16;28.30;46.10
64855;DHT22;51321;50.428;8.378;2022-07-18T10:07:37;28.30;43.70
64855;DHT22;51321;50.428;8.378;2022-07-18T10:09:59;28.30;43.70
64855;DHT22;51321;50.428;8.378;2022-07-18T10:12:21;28.40;43.80
64855;DHT22;51321;50.428;8.378;2022-07-18T10:14:44;28.40;44.00
64855;DHT22;51321;50.428;8.378;2022-07-18T10:17:06;28.60;43.60
64855;DHT22;51321;50.428;8.378;2022-07-18T10:19:28;28.60;43.60
64855;DHT22;51321;50.428;8.378;2022-07-18T10:21:49;28.80;44.10
64855;DHT22;51321;50.428;8.378;2022-07-18T10:24:11;29.10;44.70
64855;DHT22;51321;50.428;8.378;2022-07-18T10:26:33;29.30;43.00
64855;DHT22;51321;50.428;8.378;2022-07-18T10:29:14;29.10;42.70
64855;DHT22;51321;50.428;8.378;2022-07-18T10:31:39;29.10;41.90
64855;DHT22;51321;50.428;8.378;2022-07-18T10:34:10;29.00;43.00
64855;DHT22;51321;50.428;8.378;2022-07-18T10:36:33;28.90;41.80
64855;DHT22;51321;50.428;8.378;2022-07-18T10:39:07;29.00;42.40
64855;DHT22;51321;50.428;8.378;2022-07-18T10:41:29;29.40;42.90
64855;DHT22;51321;50.428;8.378;2022-07-18T10:43:50;29.60;42.60
64855;DHT22;51321;50.428;8.378;2022-07-18T10:46:12;29.60;41.60
64855;DHT22;51321;50.428;8.378;2022-07-18T10:48:54;29.60;41.50
64855;DHT22;51321;50.428;8.378;2022-07-18T10:51:17;30.00;42.90
64855;DHT22;51321;50.428;8.378;2022-07-18T10:54:06;29.90;43.70
64855;DHT22;51321;50.428;8.378;2022-07-18T10:59:27;30.00;42.50
64855;DHT22;51321;50.428;8.378;2022-07-18T11:01:49;29.70;42.80
64855;DHT22;51321;50.428;8.378;2022-07-18T11:04:24;30.00;42.60
64855;DHT22;51321;50.428;8.378;2022-07-18T11:06:53;29.60;42.70
64855;DHT22;51321;50.428;8.378;2022-07-18T11:09:32;29.50;43.40
64855;DHT22;51321;50.428;8.378;2022-07-18T11:15:08;30.00;42.60
64855;DHT22;51321;50.428;8.378;2022-07-18T11:18:02;30.40;43.00
64855;DHT22;51321;50.428;8.378;2022-07-18T11:20:37;30.20;42.40
64855;DHT22;51321;50.428;8.378;2022-07-18T11:22:59;30.20;41.70
64855;DHT22;51321;50.428;8.378;2022-07-18T11:25:25;30.30;42.50
64855;DHT22;51321;50.428;8.378;2022-07-18T11:27:47;30.40;42.70
64855;DHT22;51321;50.428;8.378;2022-07-18T11:30:09;30.80;42.00
64855;DHT22;51321;50.428;8.378;2022-07-18T11:32:31;30.90;41.20
64855;DHT22;51321;50.428;8.378;2022-07-18T11:34:53;30.60;41.10
64855;DHT22;51321;50.428;8.378;2022-07-18T11:37:16;30.90;42.40
64855;DHT22;51321;50.428;8.378;2022-07-18T11:39:38;31.20;40.90
64855;DHT22;51321;50.428;8.378;2022-07-18T11:42:00;30.80;41.00
64855;DHT22;51321;50.428;8.378;2022-07-18T11:44:22;31.30;41.70
64855;DHT22;51321;50.428;8.378;2022-07-18T11:46:48;31.20;40.90
64855;DHT22;51321;50.428;8.378;2022-07-18T11:49:10;30.90;40.30
64855;DHT22;51321;50.428;8.378;2022-07-18T11:51:34;30.40;41.40
64855;DHT22;51321;50.428;8.378;2022-07-18T11:53:59;30.60;41.20
64855;DHT22;51321;50.428;8.378;2022-07-18T11:56:22;30.70;42.10
64855;DHT22;51321;50.428;8.378;2022-07-18T11:58:45;31.40;42.70
64855;DHT22;51321;50.428;8.378;2022-07-18T12:01:07;31.70;40.10
64855;DHT22;51321;50.428;8.378;2022-07-18T12:03:29;31.40;39.70
64855;DHT22;51321;50.428;8.378;2022-07-18T12:05:53;31.00;40.50
64855;DHT22;51321;50.428;8.378;2022-07-18T12:08:30;30.60;40.80
64855;DHT22;51321;50.428;8.378;2022-07-18T12:11:11;30.50;40.30
64855;DHT22;51321;50.428;8.378;2022-07-18T12:13:41;30.80;40.30
64855;DHT22;51321;50.428;8.378;2022-07-18T12:16:03;30.70;40.00
64855;DHT22;51321;50.428;8.378;2022-07-18T12:18:28;30.70;39.80
64855;DHT22;51321;50.428;8.378;2022-07-18T12:21:07;30.60;40.00
64855;DHT22;51321;50.428;8.378;2022-07-18T12:23:29;31.00;40.00
64855;DHT22;51321;50.428;8.378;2022-07-18T12:25:57;31.30;39.70
64855;DHT22;51321;50.428;8.378;2022-07-18T12:28:24;31.60;39.60
64855;DHT22;51321;50.428;8.378;2022-07-18T12:30:47;31.40;38.70
64855;DHT22;51321;50.428;8.378;2022-07-18T12:33:09;31.70;39.90
64855;DHT22;51321;50.428;8.378;2022-07-18T12:35:33;31.40;39.80
64855;DHT22;51321;50.428;8.378;2022-07-18T12:37:57;31.30;38.90
64855;DHT22;51321;50.428;8.378;2022-07-18T12:40:20;31.70;39.20
64855;DHT22;51321;50.428;8.378;2022-07-18T12:42:42;32.20;40.50
64855;DHT22;51321;50.428;8.378;2022-07-18T12:45:06;32.30;38.40
64855;DHT22;51321;50.428;8.378;2022-07-18T12:47:28;31.70;38.50
64855;DHT22;51321;50.428;8.378;2022-07-18T12:49:50;31.40;38.80
64855;DHT22;51321;50.428;8.378;2022-07-18T12:52:12;31.40;38.80
64855;DHT22;51321;50.428;8.378;2022-07-18T12:54:34;31.50;39.40
64855;DHT22;51321;50.428;8.378;2022-07-18T12:56:56;31.50;38.80
64855;DHT22;51321;50.428;8.378;2022-07-18T12:59:17;31.50;39.10
64855;DHT22;51321;50.428;8.378;2022-07-18T13:01:40;31.70;39.00
64855;DHT22;51321;50.428;8.378;2022-07-18T13:04:03;31.80;38.80
64855;DHT22;51321;50.428;8.378;2022-07-18T13:06:25;31.80;39.20
64855;DHT22;51321;50.428;8.378;2022-07-18T13:08:47;31.80;38.80
64855;DHT22;51321;50.428;8.378;2022-07-18T13:11:09;32.20;38.70
64855;DHT22;51321;50.428;8.378;2022-07-18T13:13:31;32.40;38.20
64855;DHT22;51321;50.428;8.378;2022-07-18T13:15:53;32.90;38.20
64855;DHT22;51321;50.428;8.378;2022-07-18T13:18:16;32.90;40.00
64855;DHT22;51321;50.428;8.378;2022-07-18T13:20:40;33.40;38.70
64855;DHT22;51321;50.428;8.378;2022-07-18T13:23:03;33.10;37.70
64855;DHT22;51321;50.428;8.378;2022-07-18T13:25:25;32.80;37.30
64855;DHT22;51321;50.428;8.378;2022-07-18T13:27:47;33.00;37.20
64855;DHT22;51321;50.428;8.378;2022-07-18T13:30:10;32.90;37.70
64855;DHT22;51321;50.428;8.378;2022-07-18T13:32:32;33.20;37.00
64855;DHT22;51321;50.428;8.378;2022-07-18T13:34:55;32.80;37.00
64855;DHT22;51321;50.428;8.378;2022-07-18T13:37:17;33.10;39.10
64855;DHT22;51321;50.428;8.378;2022-07-18T13:39:39;33.50;38.70
64855;DHT22;51321;50.428;8.378;2022-07-18T13:42:01;33.20;38.00
64855;DHT22;51321;50.428;8.378;2022-07-18T13:44:25;33.00;38.30
64855;DHT22;51321;50.428;8.378;2022-07-18T13:46:47;32.70;38.10
64855;DHT22;51321;50.428;8.378;2022-07-18T13:49:09;32.70;38.60
64855;DHT22;51321;50.428;8.378;2022-07-18T13:51:32;33.00;39.70
64855;DHT22;51321;50.428;8.378;2022-07-18T13:53:54;32.70;37.90
64855;DHT22;51321;50.428;8.378;2022-07-18T13:56:16;32.70;37.80
64855;DHT22;51321;50.428;8.378;2022-07-18T13:58:38;32.50;37.90
64855;DHT22;51321;50.428;8.378;2022-07-18T14:01:00;32.50;37.80
64855;DHT22;51321;50.428;8.378;2022-07-18T14:03:21;32.40;37.90
64855;DHT22;51321;50.428;8.378;2022-07-18T14:05:43;32.20;37.70
64855;DHT22;51321;50.428;8.378;2022-07-18T14:08:07;32.40;37.40
64855;DHT22;51321;50.428;8.378;2022-07-18T14:10:29;32.40;37.30
64855;DHT22;51321;50.428;8.378;2022-07-18T14:12:51;32.70;38.10
64855;DHT22;51321;50.428;8.378;2022-07-18T14:15:13;32.50;37.00
64855;DHT22;51321;50.428;8.378;2022-07-18T14:17:35;32.60;37.80
64855;DHT22;51321;50.428;8.378;2022-07-18T14:19:57;33.00;38.20
64855;DHT22;51321;50.428;8.378;2022-07-18T14:22:18;33.20;36.50
64855;DHT22;51321;50.428;8.378;2022-07-18T14:24:42;32.90;36.40
64855;DHT22;51321;50.428;8.378;2022-07-18T14:27:03;33.00;36.70
64855;DHT22;51321;50.428;8.378;2022-07-18T14:29:25;32.90;36.70
64855;DHT22;51321;50.428;8.378;2022-07-18T14:31:47;32.70;36.40
64855;DHT22;51321;50.428;8.378;2022-07-18T14:34:09;32.50;36.40
64855;DHT22;51321;50.428;8.378;2022-07-18T14:36:30;32.30;36.70
64855;DHT22;51321;50.428;8.378;2022-07-18T14:38:52;32.30;37.20
64855;DHT22;51321;50.428;8.378;2022-07-18T14:41:15;32.60;37.40
64855;DHT22;51321;50.428;8.378;2022-07-18T14:43:37;32.70;36.60
64855;DHT22;51321;50.428;8.378;2022-07-18T14:45:59;32.60;36.10
64855;DHT22;51321;50.428;8.378;2022-07-18T14:48:21;32.50;36.30
64855;DHT22;51321;50.428;8.378;2022-07-18T14:50:42;32.70;36.70
64855;DHT22;51321;50.428;8.378;2022-07-18T14:53:04;32.80;35.80
64855;DHT22;51321;50.428;8.378;2022-07-18T14:55:26;32.70;36.10
64855;DHT22;51321;50.428;8.378;2022-07-18T14:57:49;33.00;37.00
64855;DHT22;51321;50.428;8.378;2022-07-18T15:00:12;33.20;36.60
64855;DHT22;51321;50.428;8.378;2022-07-18T15:02:34;33.30;35.60
64855;DHT22;51321;50.428;8.378;2022-07-18T15:04:56;33.40;36.00
64855;DHT22;51321;50.428;8.378;2022-07-18T15:07:18;33.50;36.50
64855;DHT22;51321;50.428;8.378;2022-07-18T15:09:39;34.10;36.10